sensor_id;sensor_type;location;lat;lon;timestamp;P1;durP1;ratioP1;P2;durP2;ratioP2
25449;SDS011;13371;52.080;5.624;2022-08-19T00:00:44;8.38;;;5.72;;
25449;SDS011;13371;52.080;5.624;2022-08-19T00:03:09;6.20;;;5.25;;
25449;SDS011;13371;52.080;5.624;2022-08-19T00:05:35;7.93;;;5.82;;
25449;SDS011;13371;52.080;5.624;2022-08-19T00:08:01;8.85;;;6.30;;
25449;SDS011;13371;52.080;5.624;2022-08-19T00:10:27;7.53;;;6.30;;
25449;SDS011;13371;52.080;5.624;2022-08-19T00:12:52;10.00;;;6.20;;
25449;SDS011;13371;52.080;5.624;2022-08-19T00:15:19;7.70;;;6.05;;
25449;SDS011;13371;52.080;5.624;2022-08-19T00:17:46;11.18;;;7.32;;
25449;SDS011;13371;52.080;5.624;2022-08-19T00:20:13;10.07;;;6.70;;
25449;SDS011;13371;52.080;5.624;2022-08-19T00:22:42;9.38;;;6.68;;
25449;SDS011;13371;52.080;5.624;2022-08-19T00:25:09;10.38;;;6.32;;
25449;SDS011;13371;52.080;5.624;2022-08-19T00:27:34;8.13;;;6.70;;
25449;SDS011;13371;52.080;5.624;2022-08-19T00:30:00;8.77;;;7.00;;
25449;SDS011;13371;52.080;5.624;2022-08-19T00:32:28;8.07;;;6.93;;
25449;SDS011;13371;52.080;5.624;2022-08-19T00:34:54;8.25;;;7.00;;
25449;SDS011;13371;52.080;5.624;2022-08-19T00:37:21;10.52;;;7.65;;
25449;SDS011;13371;52.080;5.624;2022-08-19T00:39:48;7.55;;;6.75;;
25449;SDS011;13371;52.080;5.624;2022-08-19T00:42:15;8.40;;;7.50;;
25449;SDS011;13371;52.080;5.624;2022-08-19T00:44:42;9.75;;;7.65;;
25449;SDS011;13371;52.080;5.624;2022-08-19T00:47:08;10.95;;;7.80;;
25449;SDS011;13371;52.080;5.624;2022-08-19T00:49:35;9.23;;;7.20;;
25449;SDS011;13371;52.080;5.624;2022-08-19T00:52:07;10.10;;;7.97;;
25449;SDS011;13371;52.080;5.624;2022-08-19T00:54:37;9.10;;;7.18;;
25449;SDS011;13371;52.080;5.624;2022-08-19T00:57:04;9.90;;;7.32;;
25449;SDS011;13371;52.080;5.624;2022-08-19T00:59:34;9.63;;;7.30;;
25449;SDS011;13371;52.080;5.624;2022-08-19T01:02:01;9.90;;;7.82;;
25449;SDS011;13371;52.080;5.624;2022-08-19T01:04:27;8.27;;;6.95;;
25449;SDS011;13371;52.080;5.624;2022-08-19T01:06:52;10.38;;;7.35;;
25449;SDS011;13371;52.080;5.624;2022-08-19T01:09:18;9.10;;;7.32;;
25449;SDS011;13371;52.080;5.624;2022-08-19T01:11:44;8.80;;;7.00;;
25449;SDS011;13371;52.080;5.624;2022-08-19T01:14:10;9.85;;;7.40;;
25449;SDS011;13371;52.080;5.624;2022-08-19T01:16:37;11.38;;;7.75;;
25449;SDS011;13371;52.080;5.624;2022-08-19T01:19:09;8.93;;;7.80;;
25449;SDS011;13371;52.080;5.624;2022-08-19T01:21:50;9.30;;;7.05;;
25449;SDS011;13371;52.080;5.624;2022-08-19T01:24:20;10.07;;;7.28;;
25449;SDS011;13371;52.080;5.624;2022-08-19T01:26:46;9.30;;;7.82;;
25449;SDS011;13371;52.080;5.624;2022-08-19T01:29:12;8.40;;;7.47;;
25449;SDS011;13371;52.080;5.624;2022-08-19T01:31:38;13.60;;;7.70;;
25449;SDS011;13371;52.080;5.624;2022-08-19T01:34:04;10.68;;;7.55;;
25449;SDS011;13371;52.080;5.624;2022-08-19T01:38:58;8.48;;;6.97;;
25449;SDS011;13371;52.080;5.624;2022-08-19T01:41:26;8.50;;;7.13;;
25449;SDS011;13371;52.080;5.624;2022-08-19T01:43:52;7.75;;;6.55;;
25449;SDS011;13371;52.080;5.624;2022-08-19T01:46:18;9.95;;;7.03;;
25449;SDS011;13371;52.080;5.624;2022-08-19T01:48:45;8.50;;;6.97;;
25449;SDS011;13371;52.080;5.624;2022-08-19T01:51:12;8.43;;;7.28;;
25449;SDS011;13371;52.080;5.624;2022-08-19T01:53:38;13.45;;;7.15;;
25449;SDS011;13371;52.080;5.624;2022-08-19T01:56:04;9.75;;;7.35;;
25449;SDS011;13371;52.080;5.624;2022-08-19T01:58:32;8.73;;;7.18;;
25449;SDS011;13371;52.080;5.624;2022-08-19T02:01:03;9.10;;;6.60;;
25449;SDS011;13371;52.080;5.624;2022-08-19T02:03:30;9.25;;;7.40;;
25449;SDS011;13371;52.080;5.624;2022-08-19T02:05:56;9.20;;;7.45;;
25449;SDS011;13371;52.080;5.624;2022-08-19T02:08:24;10.73;;;7.30;;
25449;SDS011;13371;52.080;5.624;2022-08-19T02:10:51;8.93;;;6.85;;
25449;SDS011;13371;52.080;5.624;2022-08-19T02:13:18;11.13;;;7.25;;
25449;SDS011;13371;52.080;5.624;2022-08-19T02:15:43;9.20;;;6.45;;
25449;SDS011;13371;52.080;5.624;2022-08-19T02:18:09;9.57;;;6.93;;
25449;SDS011;13371;52.080;5.624;2022-08-19T02:20:36;9.13;;;6.80;;
25449;SDS011;13371;52.080;5.624;2022-08-19T02:23:03;10.52;;;7.35;;
25449;SDS011;13371;52.080;5.624;2022-08-19T02:25:29;9.25;;;7.68;;
25449;SDS011;13371;52.080;5.624;2022-08-19T02:27:55;9.00;;;7.18;;
25449;SDS011;13371;52.080;5.624;2022-08-19T02:30:21;11.45;;;7.07;;
25449;SDS011;13371;52.080;5.624;2022-08-19T02:32:47;10.02;;;7.78;;
25449;SDS011;13371;52.080;5.624;2022-08-19T02:35:13;8.43;;;7.50;;
25449;SDS011;13371;52.080;5.624;2022-08-19T02:37:40;9.65;;;7.43;;
25449;SDS011;13371;52.080;5.624;2022-08-19T02:40:25;9.23;;;7.25;;
25449;SDS011;13371;52.080;5.624;2022-08-19T02:42:52;9.45;;;6.82;;
25449;SDS011;13371;52.080;5.624;2022-08-19T02:45:17;11.95;;;7.78;;
25449;SDS011;13371;52.080;5.624;2022-08-19T02:47:43;10.02;;;7.25;;
25449;SDS011;13371;52.080;5.624;2022-08-19T02:50:08;8.60;;;7.38;;
25449;SDS011;13371;52.080;5.624;2022-08-19T02:52:35;10.68;;;7.30;;
25449;SDS011;13371;52.080;5.624;2022-08-19T02:55:00;9.75;;;7.82;;
25449;SDS011;13371;52.080;5.624;2022-08-19T02:57:26;10.30;;;7.97;;
25449;SDS011;13371;52.080;5.624;2022-08-19T02:59:52;11.98;;;7.95;;
25449;SDS011;13371;52.080;5.624;2022-08-19T03:02:18;12.35;;;7.70;;
25449;SDS011;13371;52.080;5.624;2022-08-19T03:04:44;8.77;;;7.60;;
25449;SDS011;13371;52.080;5.624;2022-08-19T03:07:12;12.23;;;8.25;;
25449;SDS011;13371;52.080;5.624;2022-08-19T03:09:39;11.05;;;8.23;;
25449;SDS011;13371;52.080;5.624;2022-08-19T03:12:05;10.45;;;9.05;;
25449;SDS011;13371;52.080;5.624;2022-08-19T03:14:34;11.27;;;8.48;;
25449;SDS011;13371;52.080;5.624;2022-08-19T03:16:59;12.00;;;9.20;;
25449;SDS011;13371;52.080;5.624;2022-08-19T03:19:25;11.02;;;9.02;;
25449;SDS011;13371;52.080;5.624;2022-08-19T03:21:52;13.48;;;9.07;;
25449;SDS011;13371;52.080;5.624;2022-08-19T03:24:18;11.65;;;8.95;;
25449;SDS011;13371;52.080;5.624;2022-08-19T03:26:49;11.60;;;8.38;;
25449;SDS011;13371;52.080;5.624;2022-08-19T03:29:22;12.68;;;8.68;;
25449;SDS011;13371;52.080;5.624;2022-08-19T03:31:49;13.85;;;9.32;;
25449;SDS011;13371;52.080;5.624;2022-08-19T03:34:18;11.80;;;8.80;;
25449;SDS011;13371;52.080;5.624;2022-08-19T03:36:46;11.65;;;8.38;;
25449;SDS011;13371;52.080;5.624;2022-08-19T03:39:12;10.82;;;8.70;;
25449;SDS011;13371;52.080;5.624;2022-08-19T03:41:39;11.45;;;8.60;;
25449;SDS011;13371;52.080;5.624;2022-08-19T03:44:06;10.63;;;8.63;;
25449;SDS011;13371;52.080;5.624;2022-08-19T03:46:33;13.73;;;8.25;;
25449;SDS011;13371;52.080;5.624;2022-08-19T03:49:00;14.55;;;8.23;;
25449;SDS011;13371;52.080;5.624;2022-08-19T03:51:34;14.32;;;9.80;;
25449;SDS011;13371;52.080;5.624;2022-08-19T03:54:03;11.60;;;9.35;;
25449;SDS011;13371;52.080;5.624;2022-08-19T03:56:35;13.15;;;9.35;;
25449;SDS011;13371;52.080;5.624;2022-08-19T03:59:02;11.40;;;9.63;;
25449;SDS011;13371;52.080;5.624;2022-08-19T04:01:29;16.48;;;10.25;;
25449;SDS011;13371;52.080;5.624;2022-08-19T04:03:55;12.10;;;9.70;;
25449;SDS011;13371;52.080;5.624;2022-08-19T04:06:23;15.15;;;9.70;;
25449;SDS011;13371;52.080;5.624;2022-08-19T04:08:53;11.98;;;9.52;;
25449;SDS011;13371;52.080;5.624;2022-08-19T04:11:21;14.10;;;9.98;;
25449;SDS011;13371;52.080;5.624;2022-08-19T04:13:49;13.70;;;9.75;;
25449;SDS011;13371;52.080;5.624;2022-08-19T04:16:16;12.40;;;9.07;;
25449;SDS011;13371;52.080;5.624;2022-08-19T04:18:43;14.95;;;10.55;;
25449;SDS011;13371;52.080;5.624;2022-08-19T04:21:14;13.52;;;9.75;;
25449;SDS011;13371;52.080;5.624;2022-08-19T04:23:42;15.20;;;9.70;;
25449;SDS011;13371;52.080;5.624;2022-08-19T04:26:11;12.73;;;9.15;;
25449;SDS011;13371;52.080;5.624;2022-08-19T04:28:39;13.88;;;9.02;;
25449;SDS011;13371;52.080;5.624;2022-08-19T04:31:04;14.65;;;9.82;;
25449;SDS011;13371;52.080;5.624;2022-08-19T04:33:30;15.75;;;10.00;;
25449;SDS011;13371;52.080;5.624;2022-08-19T04:35:56;12.32;;;8.75;;
25449;SDS011;13371;52.080;5.624;2022-08-19T04:38:23;12.13;;;8.65;;
25449;SDS011;13371;52.080;5.624;2022-08-19T04:40:49;13.80;;;10.20;;
25449;SDS011;13371;52.080;5.624;2022-08-19T04:43:36;11.55;;;9.05;;
25449;SDS011;13371;52.080;5.624;2022-08-19T04:46:07;13.32;;;8.88;;
25449;SDS011;13371;52.080;5.624;2022-08-19T04:48:34;12.35;;;9.77;;
25449;SDS011;13371;52.080;5.624;2022-08-19T04:51:00;10.85;;;8.80;;
25449;SDS011;13371;52.080;5.624;2022-08-19T04:53:26;11.27;;;8.95;;
25449;SDS011;13371;52.080;5.624;2022-08-19T04:55:58;11.40;;;8.68;;
25449;SDS011;13371;52.080;5.624;2022-08-19T04:58:25;11.82;;;8.57;;
25449;SDS011;13371;52.080;5.624;2022-08-19T05:00:52;12.15;;;9.10;;
25449;SDS011;13371;52.080;5.624;2022-08-19T05:03:18;10.93;;;8.80;;
25449;SDS011;13371;52.080;5.624;2022-08-19T05:05:44;16.73;;;9.70;;
25449;SDS011;13371;52.080;5.624;2022-08-19T05:08:13;13.45;;;10.45;;
25449;SDS011;13371;52.080;5.624;2022-08-19T05:10:44;14.52;;;9.48;;
25449;SDS011;13371;52.080;5.624;2022-08-19T05:13:10;13.75;;;9.88;;
25449;SDS011;13371;52.080;5.624;2022-08-19T05:15:36;12.20;;;10.10;;
25449;SDS011;13371;52.080;5.624;2022-08-19T05:18:01;17.85;;;11.20;;
25449;SDS011;13371;52.080;5.624;2022-08-19T05:20:45;14.90;;;10.48;;
25449;SDS011;13371;52.080;5.624;2022-08-19T05:23:29;17.60;;;10.88;;
25449;SDS011;13371;52.080;5.624;2022-08-19T05:25:55;13.65;;;11.25;;
25449;SDS011;13371;52.080;5.624;2022-08-19T05:28:21;13.25;;;10.70;;
25449;SDS011;13371;52.080;5.624;2022-08-19T05:30:46;15.73;;;10.80;;
25449;SDS011;13371;52.080;5.624;2022-08-19T05:33:13;16.13;;;11.18;;
25449;SDS011;13371;52.080;5.624;2022-08-19T05:35:39;13.40;;;10.60;;
25449;SDS011;13371;52.080;5.624;2022-08-19T05:38:06;15.65;;;11.45;;
25449;SDS011;13371;52.080;5.624;2022-08-19T05:40:34;14.68;;;10.75;;
25449;SDS011;13371;52.080;5.624;2022-08-19T05:43:01;15.60;;;11.65;;
25449;SDS011;13371;52.080;5.624;2022-08-19T05:45:28;15.40;;;11.75;;
25449;SDS011;13371;52.080;5.624;2022-08-19T05:47:53;20.30;;;12.68;;
25449;SDS011;13371;52.080;5.624;2022-08-19T05:50:19;16.38;;;12.35;;
25449;SDS011;13371;52.080;5.624;2022-08-19T05:52:45;17.98;;;12.38;;
25449;SDS011;13371;52.080;5.624;2022-08-19T05:55:11;16.45;;;12.63;;
25449;SDS011;13371;52.080;5.624;2022-08-19T05:57:37;16.48;;;12.95;;
25449;SDS011;13371;52.080;5.624;2022-08-19T06:00:03;18.83;;;12.98;;
25449;SDS011;13371;52.080;5.624;2022-08-19T06:02:33;19.40;;;14.23;;
25449;SDS011;13371;52.080;5.624;2022-08-19T06:05:00;20.50;;;14.65;;
25449;SDS011;13371;52.080;5.624;2022-08-19T06:07:26;24.05;;;16.02;;
25449;SDS011;13371;52.080;5.624;2022-08-19T06:09:53;21.40;;;15.18;;
25449;SDS011;13371;52.080;5.624;2022-08-19T06:12:19;26.80;;;17.00;;
25449;SDS011;13371;52.080;5.624;2022-08-19T06:14:51;29.10;;;17.52;;
25449;SDS011;13371;52.080;5.624;2022-08-19T06:17:17;31.00;;;18.50;;
25449;SDS011;13371;52.080;5.624;2022-08-19T06:19:43;33.08;;;18.02;;
25449;SDS011;13371;52.080;5.624;2022-08-19T06:22:08;31.05;;;17.92;;
25449;SDS011;13371;52.080;5.624;2022-08-19T06:24:36;41.72;;;17.98;;
25449;SDS011;13371;52.080;5.624;2022-08-19T06:27:02;26.02;;;17.55;;
25449;SDS011;13371;52.080;5.624;2022-08-19T06:29:30;33.92;;;19.75;;
25449;SDS011;13371;52.080;5.624;2022-08-19T06:31:58;34.50;;;20.65;;
25449;SDS011;13371;52.080;5.624;2022-08-19T06:34:26;40.15;;;22.38;;
25449;SDS011;13371;52.080;5.624;2022-08-19T06:36:53;35.67;;;20.80;;
25449;SDS011;13371;52.080;5.624;2022-08-19T06:39:20;40.00;;;23.75;;
25449;SDS011;13371;52.080;5.624;2022-08-19T06:41:49;43.90;;;23.15;;
25449;SDS011;13371;52.080;5.624;2022-08-19T06:44:17;51.45;;;25.00;;
25449;SDS011;13371;52.080;5.624;2022-08-19T06:46:44;47.75;;;25.38;;
25449;SDS011;13371;52.080;5.624;2022-08-19T06:49:10;54.92;;;27.23;;
25449;SDS011;13371;52.080;5.624;2022-08-19T06:51:39;48.85;;;27.33;;
25449;SDS011;13371;52.080;5.624;2022-08-19T06:54:06;50.00;;;26.50;;
25449;SDS011;13371;52.080;5.624;2022-08-19T06:56:32;56.17;;;28.65;;
25449;SDS011;13371;52.080;5.624;2022-08-19T06:59:02;67.57;;;32.17;;
25449;SDS011;13371;52.080;5.624;2022-08-19T07:01:29;66.93;;;32.60;;
25449;SDS011;13371;52.080;5.624;2022-08-19T07:03:58;65.90;;;33.40;;
25449;SDS011;13371;52.080;5.624;2022-08-19T07:06:26;68.90;;;34.55;;
25449;SDS011;13371;52.080;5.624;2022-08-19T07:08:51;70.05;;;34.47;;
25449;SDS011;13371;52.080;5.624;2022-08-19T07:11:17;60.97;;;33.70;;
25449;SDS011;13371;52.080;5.624;2022-08-19T07:13:44;62.65;;;32.17;;
25449;SDS011;13371;52.080;5.624;2022-08-19T07:16:12;65.05;;;35.20;;
25449;SDS011;13371;52.080;5.624;2022-08-19T07:18:40;57.15;;;34.47;;
25449;SDS011;13371;52.080;5.624;2022-08-19T07:21:08;65.45;;;34.97;;
25449;SDS011;13371;52.080;5.624;2022-08-19T07:23:36;64.22;;;34.42;;
25449;SDS011;13371;52.080;5.624;2022-08-19T07:26:11;68.82;;;34.53;;
25449;SDS011;13371;52.080;5.624;2022-08-19T07:28:43;62.05;;;32.45;;
25449;SDS011;13371;52.080;5.624;2022-08-19T07:31:10;58.28;;;32.65;;
25449;SDS011;13371;52.080;5.624;2022-08-19T07:33:37;72.80;;;33.75;;
25449;SDS011;13371;52.080;5.624;2022-08-19T07:36:04;60.88;;;32.38;;
25449;SDS011;13371;52.080;5.624;2022-08-19T07:38:32;67.90;;;33.83;;
25449;SDS011;13371;52.080;5.624;2022-08-19T07:40:59;63.10;;;33.10;;
25449;SDS011;13371;52.080;5.624;2022-08-19T07:43:25;67.53;;;32.53;;
25449;SDS011;13371;52.080;5.624;2022-08-19T07:45:55;64.55;;;34.78;;
25449;SDS011;13371;52.080;5.624;2022-08-19T07:48:22;60.83;;;33.45;;
25449;SDS011;13371;52.080;5.624;2022-08-19T07:50:51;59.72;;;33.17;;
25449;SDS011;13371;52.080;5.624;2022-08-19T07:53:21;64.25;;;35.08;;
25449;SDS011;13371;52.080;5.624;2022-08-19T07:55:47;62.05;;;35.15;;
25449;SDS011;13371;52.080;5.624;2022-08-19T07:58:13;60.22;;;34.38;;
25449;SDS011;13371;52.080;5.624;2022-08-19T08:00:41;61.38;;;34.65;;
25449;SDS011;13371;52.080;5.624;2022-08-19T08:03:08;61.03;;;33.20;;
25449;SDS011;13371;52.080;5.624;2022-08-19T08:05:34;62.10;;;34.15;;
25449;SDS011;13371;52.080;5.624;2022-08-19T08:08:18;59.47;;;34.30;;
25449;SDS011;13371;52.080;5.624;2022-08-19T08:11:03;52.55;;;30.67;;
25449;SDS011;13371;52.080;5.624;2022-08-19T08:13:30;51.17;;;31.25;;
25449;SDS011;13371;52.080;5.624;2022-08-19T08:15:56;55.95;;;31.45;;
25449;SDS011;13371;52.080;5.624;2022-08-19T08:18:24;53.40;;;29.95;;
25449;SDS011;13371;52.080;5.624;2022-08-19T08:20:50;52.20;;;30.63;;
25449;SDS011;13371;52.080;5.624;2022-08-19T08:23:15;47.22;;;28.45;;
25449;SDS011;13371;52.080;5.624;2022-08-19T08:25:47;48.78;;;28.23;;
25449;SDS011;13371;52.080;5.624;2022-08-19T08:28:13;48.17;;;28.05;;
25449;SDS011;13371;52.080;5.624;2022-08-19T08:30:40;50.60;;;26.95;;
25449;SDS011;13371;52.080;5.624;2022-08-19T08:33:08;43.13;;;26.27;;
25449;SDS011;13371;52.080;5.624;2022-08-19T08:35:34;42.53;;;24.10;;
25449;SDS011;13371;52.080;5.624;2022-08-19T08:38:01;42.70;;;25.52;;
25449;SDS011;13371;52.080;5.624;2022-08-19T08:40:30;42.97;;;26.45;;
25449;SDS011;13371;52.080;5.624;2022-08-19T08:46:15;41.53;;;24.23;;
25449;SDS011;13371;52.080;5.624;2022-08-19T08:52:00;44.25;;;25.25;;
25449;SDS011;13371;52.080;5.624;2022-08-19T08:54:38;40.10;;;25.08;;
25449;SDS011;13371;52.080;5.624;2022-08-19T08:57:08;42.10;;;24.27;;
25449;SDS011;13371;52.080;5.624;2022-08-19T08:59:39;37.85;;;24.15;;
25449;SDS011;13371;52.080;5.624;2022-08-19T09:02:07;38.22;;;24.27;;
25449;SDS011;13371;52.080;5.624;2022-08-19T09:04:36;39.38;;;23.00;;
25449;SDS011;13371;52.080;5.624;2022-08-19T09:10:02;35.25;;;21.70;;
25449;SDS011;13371;52.080;5.624;2022-08-19T09:15:14;40.80;;;23.30;;
25449;SDS011;13371;52.080;5.624;2022-08-19T09:17:45;40.95;;;24.25;;
25449;SDS011;13371;52.080;5.624;2022-08-19T09:20:19;33.95;;;22.95;;
25449;SDS011;13371;52.080;5.624;2022-08-19T09:22:47;38.28;;;23.20;;
25449;SDS011;13371;52.080;5.624;2022-08-19T09:25:16;37.28;;;23.00;;
25449;SDS011;13371;52.080;5.624;2022-08-19T09:27:43;34.40;;;21.83;;
25449;SDS011;13371;52.080;5.624;2022-08-19T09:30:14;40.13;;;22.25;;
25449;SDS011;13371;52.080;5.624;2022-08-19T09:32:42;33.08;;;20.63;;
25449;SDS011;13371;52.080;5.624;2022-08-19T09:35:10;32.00;;;20.77;;
25449;SDS011;13371;52.080;5.624;2022-08-19T09:37:37;28.70;;;19.55;;
25449;SDS011;13371;52.080;5.624;2022-08-19T09:40:03;28.88;;;19.40;;
25449;SDS011;13371;52.080;5.624;2022-08-19T09:42:29;31.25;;;19.67;;
25449;SDS011;13371;52.080;5.624;2022-08-19T09:44:55;31.52;;;21.45;;
25449;SDS011;13371;52.080;5.624;2022-08-19T09:47:20;27.88;;;21.20;;
25449;SDS011;13371;52.080;5.624;2022-08-19T09:49:46;27.15;;;17.45;;
25449;SDS011;13371;52.080;5.624;2022-08-19T09:52:13;24.88;;;16.30;;
25449;SDS011;13371;52.080;5.624;2022-08-19T09:54:40;21.65;;;15.15;;
25449;SDS011;13371;52.080;5.624;2022-08-19T09:57:05;28.23;;;17.52;;
25449;SDS011;13371;52.080;5.624;2022-08-19T09:59:31;24.27;;;15.27;;
25449;SDS011;13371;52.080;5.624;2022-08-19T10:01:57;27.70;;;16.45;;
25449;SDS011;13371;52.080;5.624;2022-08-19T10:04:23;24.80;;;16.65;;
25449;SDS011;13371;52.080;5.624;2022-08-19T10:07:09;23.50;;;16.60;;
25449;SDS011;13371;52.080;5.624;2022-08-19T10:09:35;27.80;;;17.60;;
25449;SDS011;13371;52.080;5.624;2022-08-19T10:12:01;26.83;;;18.10;;
25449;SDS011;13371;52.080;5.624;2022-08-19T10:14:28;25.77;;;16.23;;
25449;SDS011;13371;52.080;5.624;2022-08-19T10:16:54;21.85;;;14.85;;
25449;SDS011;13371;52.080;5.624;2022-08-19T10:19:21;22.42;;;15.38;;
25449;SDS011;13371;52.080;5.624;2022-08-19T10:21:47;23.30;;;15.57;;
25449;SDS011;13371;52.080;5.624;2022-08-19T10:24:12;24.90;;;16.77;;
25449;SDS011;13371;52.080;5.624;2022-08-19T10:26:38;23.73;;;15.50;;
25449;SDS011;13371;52.080;5.624;2022-08-19T10:29:06;20.83;;;14.02;;
25449;SDS011;13371;52.080;5.624;2022-08-19T10:31:33;28.52;;;15.30;;
25449;SDS011;13371;52.080;5.624;2022-08-19T10:33:59;23.35;;;16.05;;
25449;SDS011;13371;52.080;5.624;2022-08-19T10:36:27;23.23;;;14.93;;
25449;SDS011;13371;52.080;5.624;2022-08-19T10:38:57;24.77;;;15.90;;
25449;SDS011;13371;52.080;5.624;2022-08-19T10:41:26;21.88;;;13.88;;
25449;SDS011;13371;52.080;5.624;2022-08-19T10:43:55;18.48;;;13.65;;
25449;SDS011;13371;52.080;5.624;2022-08-19T10:46:23;19.15;;;12.70;;
25449;SDS011;13371;52.080;5.624;2022-08-19T10:48:49;21.08;;;13.65;;
25449;SDS011;13371;52.080;5.624;2022-08-19T10:51:16;22.42;;;13.23;;
25449;SDS011;13371;52.080;5.624;2022-08-19T10:54:00;22.75;;;15.35;;
25449;SDS011;13371;52.080;5.624;2022-08-19T10:56:27;20.13;;;14.65;;
25449;SDS011;13371;52.080;5.624;2022-08-19T10:59:13;22.15;;;13.93;;
25449;SDS011;13371;52.080;5.624;2022-08-19T11:01:40;23.10;;;15.40;;
25449;SDS011;13371;52.080;5.624;2022-08-19T11:04:07;22.67;;;13.70;;
25449;SDS011;13371;52.080;5.624;2022-08-19T11:06:36;23.50;;;14.57;;
25449;SDS011;13371;52.080;5.624;2022-08-19T11:09:03;23.83;;;14.40;;
25449;SDS011;13371;52.080;5.624;2022-08-19T11:11:30;22.13;;;13.82;;
25449;SDS011;13371;52.080;5.624;2022-08-19T11:13:57;23.50;;;14.85;;
25449;SDS011;13371;52.080;5.624;2022-08-19T11:16:23;21.88;;;13.70;;
25449;SDS011;13371;52.080;5.624;2022-08-19T11:18:53;20.08;;;12.85;;
25449;SDS011;13371;52.080;5.624;2022-08-19T11:21:24;20.60;;;13.48;;
25449;SDS011;13371;52.080;5.624;2022-08-19T11:23:53;18.60;;;13.98;;
25449;SDS011;13371;52.080;5.624;2022-08-19T11:26:22;24.17;;;16.00;;
25449;SDS011;13371;52.080;5.624;2022-08-19T11:28:48;22.20;;;14.75;;
25449;SDS011;13371;52.080;5.624;2022-08-19T11:31:20;24.40;;;14.93;;
25449;SDS011;13371;52.080;5.624;2022-08-19T11:33:47;25.65;;;17.27;;
25449;SDS011;13371;52.080;5.624;2022-08-19T11:36:16;22.40;;;17.00;;
25449;SDS011;13371;52.080;5.624;2022-08-19T11:38:42;28.20;;;17.10;;
25449;SDS011;13371;52.080;5.624;2022-08-19T11:41:08;18.52;;;14.05;;
25449;SDS011;13371;52.080;5.624;2022-08-19T11:43:34;24.10;;;17.58;;
25449;SDS011;13371;52.080;5.624;2022-08-19T11:46:03;27.60;;;17.00;;
25449;SDS011;13371;52.080;5.624;2022-08-19T11:48:33;24.40;;;16.33;;
25449;SDS011;13371;52.080;5.624;2022-08-19T11:51:02;25.80;;;16.45;;
25449;SDS011;13371;52.080;5.624;2022-08-19T11:53:31;22.13;;;16.48;;
25449;SDS011;13371;52.080;5.624;2022-08-19T11:55:57;24.17;;;16.95;;
25449;SDS011;13371;52.080;5.624;2022-08-19T11:58:23;27.77;;;19.02;;
25449;SDS011;13371;52.080;5.624;2022-08-19T12:00:49;30.67;;;18.08;;
25449;SDS011;13371;52.080;5.624;2022-08-19T12:03:15;24.98;;;17.70;;
25449;SDS011;13371;52.080;5.624;2022-08-19T12:05:41;23.15;;;17.48;;
25449;SDS011;13371;52.080;5.624;2022-08-19T12:08:07;23.95;;;15.07;;
25449;SDS011;13371;52.080;5.624;2022-08-19T12:10:34;26.83;;;18.00;;
25449;SDS011;13371;52.080;5.624;2022-08-19T12:13:00;21.25;;;15.85;;
25449;SDS011;13371;52.080;5.624;2022-08-19T12:15:26;29.45;;;18.55;;
25449;SDS011;13371;52.080;5.624;2022-08-19T12:17:53;25.25;;;16.40;;
25449;SDS011;13371;52.080;5.624;2022-08-19T12:20:21;23.13;;;17.40;;
25449;SDS011;13371;52.080;5.624;2022-08-19T12:22:48;31.95;;;20.63;;
25449;SDS011;13371;52.080;5.624;2022-08-19T12:25:14;27.27;;;19.98;;
25449;SDS011;13371;52.080;5.624;2022-08-19T12:27:39;30.67;;;19.88;;
25449;SDS011;13371;52.080;5.624;2022-08-19T12:30:06;25.90;;;19.13;;
25449;SDS011;13371;52.080;5.624;2022-08-19T12:32:34;23.73;;;18.13;;
25449;SDS011;13371;52.080;5.624;2022-08-19T12:35:00;27.73;;;17.33;;
25449;SDS011;13371;52.080;5.624;2022-08-19T12:37:26;24.45;;;17.90;;
25449;SDS011;13371;52.080;5.624;2022-08-19T12:39:51;27.15;;;17.90;;
25449;SDS011;13371;52.080;5.624;2022-08-19T12:42:17;25.77;;;17.55;;
25449;SDS011;13371;52.080;5.624;2022-08-19T12:44:43;22.60;;;16.50;;
25449;SDS011;13371;52.080;5.624;2022-08-19T12:47:10;24.75;;;17.17;;
25449;SDS011;13371;52.080;5.624;2022-08-19T12:49:38;23.08;;;17.33;;
25449;SDS011;13371;52.080;5.624;2022-08-19T12:52:04;25.83;;;17.95;;
25449;SDS011;13371;52.080;5.624;2022-08-19T12:54:30;24.67;;;16.75;;
25449;SDS011;13371;52.080;5.624;2022-08-19T12:56:56;25.45;;;18.35;;
25449;SDS011;13371;52.080;5.624;2022-08-19T12:59:24;26.75;;;18.58;;
25449;SDS011;13371;52.080;5.624;2022-08-19T13:01:50;24.83;;;17.98;;
25449;SDS011;13371;52.080;5.624;2022-08-19T13:04:16;26.55;;;17.77;;
25449;SDS011;13371;52.080;5.624;2022-08-19T13:06:41;24.38;;;18.13;;
25449;SDS011;13371;52.080;5.624;2022-08-19T13:09:07;24.95;;;17.40;;
25449;SDS011;13371;52.080;5.624;2022-08-19T13:11:34;23.80;;;17.08;;
25449;SDS011;13371;52.080;5.624;2022-08-19T13:14:00;24.73;;;16.35;;
25449;SDS011;13371;52.080;5.624;2022-08-19T13:16:27;28.60;;;18.70;;
25449;SDS011;13371;52.080;5.624;2022-08-19T13:18:53;25.58;;;19.58;;
25449;SDS011;13371;52.080;5.624;2022-08-19T13:21:21;22.48;;;17.45;;
25449;SDS011;13371;52.080;5.624;2022-08-19T13:23:48;25.05;;;18.27;;
25449;SDS011;13371;52.080;5.624;2022-08-19T13:26:14;26.65;;;18.00;;
25449;SDS011;13371;52.080;5.624;2022-08-19T13:28:41;21.77;;;16.27;;
25449;SDS011;13371;52.080;5.624;2022-08-19T13:31:27;20.90;;;16.95;;
25449;SDS011;13371;52.080;5.624;2022-08-19T13:34:12;24.80;;;15.98;;
25449;SDS011;13371;52.080;5.624;2022-08-19T13:36:38;23.42;;;16.88;;
25449;SDS011;13371;52.080;5.624;2022-08-19T13:39:05;20.98;;;15.63;;
25449;SDS011;13371;52.080;5.624;2022-08-19T13:41:32;23.10;;;14.90;;
25449;SDS011;13371;52.080;5.624;2022-08-19T13:43:59;29.70;;;17.63;;
25449;SDS011;13371;52.080;5.624;2022-08-19T13:46:24;22.35;;;15.50;;
25449;SDS011;13371;52.080;5.624;2022-08-19T13:48:52;19.52;;;13.73;;
25449;SDS011;13371;52.080;5.624;2022-08-19T13:51:18;19.58;;;13.30;;
25449;SDS011;13371;52.080;5.624;2022-08-19T13:53:43;19.27;;;12.43;;
25449;SDS011;13371;52.080;5.624;2022-08-19T13:56:10;21.55;;;14.32;;
25449;SDS011;13371;52.080;5.624;2022-08-19T13:58:38;18.88;;;13.07;;
25449;SDS011;13371;52.080;5.624;2022-08-19T14:01:04;17.88;;;12.95;;
25449;SDS011;13371;52.080;5.624;2022-08-19T14:03:31;21.20;;;12.40;;
25449;SDS011;13371;52.080;5.624;2022-08-19T14:05:57;20.23;;;14.50;;
25449;SDS011;13371;52.080;5.624;2022-08-19T14:08:23;22.45;;;16.63;;
25449;SDS011;13371;52.080;5.624;2022-08-19T14:10:49;22.63;;;16.85;;
25449;SDS011;13371;52.080;5.624;2022-08-19T14:13:16;20.95;;;16.10;;
25449;SDS011;13371;52.080;5.624;2022-08-19T14:15:44;27.42;;;16.25;;
25449;SDS011;13371;52.080;5.624;2022-08-19T14:18:10;24.45;;;17.30;;
25449;SDS011;13371;52.080;5.624;2022-08-19T14:20:35;21.13;;;15.73;;
25449;SDS011;13371;52.080;5.624;2022-08-19T14:23:01;21.05;;;15.48;;
25449;SDS011;13371;52.080;5.624;2022-08-19T14:25:27;20.30;;;15.25;;
25449;SDS011;13371;52.080;5.624;2022-08-19T14:27:54;24.60;;;18.13;;
25449;SDS011;13371;52.080;5.624;2022-08-19T14:30:23;23.98;;;15.57;;
25449;SDS011;13371;52.080;5.624;2022-08-19T14:32:51;13.55;;;9.68;;
25449;SDS011;13371;52.080;5.624;2022-08-19T14:35:17;9.45;;;4.72;;
25449;SDS011;13371;52.080;5.624;2022-08-19T14:37:43;9.05;;;5.05;;
25449;SDS011;13371;52.080;5.624;2022-08-19T14:40:10;7.78;;;4.38;;
25449;SDS011;13371;52.080;5.624;2022-08-19T14:42:37;6.70;;;4.88;;
25449;SDS011;13371;52.080;5.624;2022-08-19T14:45:03;8.55;;;6.50;;